Sainte-Anne-De-Beaupre, Canada
Current Conditions -  °F | °C
As of 10:00 PM on Thursday 27 Nov 2014 (Local Time) from CYQB Reporting Station
Broken Clouds Broken Clouds  
Wind Chill: 23°   Ceiling: 16000
Heat Index: 23°   Visibility: 15mi
Dew Point: 16°   Wind: 2mph
Humidity: 74%   Direction: NA
Pressure: 30.03"   Gusts: NA
Location:  47.02°N, 70.93°W
Report Text: CYQB 280300Z VRB02KT 15SM BKN160 M05/M09 A3003 RMK AS6 SLP173
Loading
Personal Weather Stations






























Interactive Weather Map New forecast layout! Learn more

10-Day Weather Forecast

Advertisements
Track Severe Weather on mobile